createdAt,value
2018-07-23T00:02:09.048Z,34.26
2018-07-23T00:04:37.836Z,33.96
2018-07-23T00:07:06.569Z,34.24
2018-07-23T00:09:35.294Z,34.19
2018-07-23T00:12:04.037Z,33.55
2018-07-23T00:14:32.812Z,33.39
2018-07-23T00:17:01.537Z,33.49
2018-07-23T00:19:30.331Z,33.50
2018-07-23T00:21:59.110Z,33.86
2018-07-23T00:24:27.921Z,33.81
2018-07-23T00:26:56.695Z,33.38
2018-07-23T00:29:25.481Z,33.61
2018-07-23T00:31:54.295Z,33.62
2018-07-23T00:34:23.039Z,33.65
2018-07-23T00:36:51.802Z,33.94
2018-07-23T00:39:20.589Z,33.86
2018-07-23T00:41:49.442Z,33.63
2018-07-23T00:44:18.188Z,33.84
2018-07-23T00:46:46.926Z,34.11
2018-07-23T00:49:15.634Z,33.56
2018-07-23T00:51:44.475Z,33.33
2018-07-23T00:54:13.280Z,33.86
2018-07-23T00:56:42.017Z,33.99
2018-07-23T00:59:10.749Z,33.92
2018-07-23T01:01:39.499Z,34.41
2018-07-23T01:04:08.291Z,33.66
2018-07-23T01:06:37.042Z,33.97
2018-07-23T01:09:07.930Z,33.80
2018-07-23T01:11:36.859Z,34.33
2018-07-23T01:14:05.860Z,33.64
2018-07-23T01:16:34.586Z,33.97
2018-07-23T01:19:03.375Z,33.95
2018-07-23T01:21:32.202Z,33.78
2018-07-23T01:24:00.937Z,33.66
2018-07-23T01:26:29.796Z,34.57
2018-07-23T01:28:58.543Z,34.34
2018-07-23T01:31:27.345Z,33.62
2018-07-23T01:33:56.072Z,33.74
2018-07-23T01:36:24.842Z,33.62
2018-07-23T01:38:53.592Z,34.23
2018-07-23T01:41:22.442Z,34.11
2018-07-23T01:43:51.198Z,33.78
2018-07-23T01:46:19.990Z,33.99
2018-07-23T01:48:48.731Z,33.63
2018-07-23T01:51:17.501Z,33.52
2018-07-23T01:53:46.256Z,34.11
2018-07-23T01:56:14.985Z,33.69
2018-07-23T01:58:43.731Z,34.49
2018-07-23T02:01:13.129Z,34.42
2018-07-23T02:03:42.428Z,34.03
2018-07-23T02:06:11.397Z,34.57
2018-07-23T02:08:40.281Z,33.68
2018-07-23T02:11:09.001Z,34.44
2018-07-23T02:13:37.784Z,34.27
2018-07-23T02:16:06.545Z,34.53
2018-07-23T02:18:35.273Z,33.92
2018-07-23T02:21:04.025Z,34.08
2018-07-23T02:23:32.779Z,34.17
2018-07-23T02:26:01.543Z,34.21
2018-07-23T02:28:30.300Z,34.44
2018-07-23T02:30:59.072Z,33.87
2018-07-23T02:33:27.829Z,34.39
2018-07-23T02:35:56.592Z,34.46
2018-07-23T02:38:25.359Z,33.98
2018-07-23T02:40:54.158Z,33.61
2018-07-23T02:43:22.863Z,34.40
2018-07-23T02:45:51.567Z,34.15
2018-07-23T02:48:20.298Z,34.36
2018-07-23T02:50:49.030Z,34.38
2018-07-23T02:53:17.840Z,33.96
2018-07-23T02:55:46.551Z,34.41
2018-07-23T02:58:15.308Z,34.27
2018-07-23T03:00:44.046Z,33.67
2018-07-23T03:03:12.809Z,33.89
2018-07-23T03:05:41.524Z,34.00
2018-07-23T03:08:10.265Z,34.17
2018-07-23T03:10:39.028Z,34.45
2018-07-23T03:13:08.075Z,33.65
2018-07-23T03:15:36.879Z,34.48
2018-07-23T03:18:05.705Z,33.73
2018-07-23T03:20:34.484Z,34.41
2018-07-23T03:23:03.194Z,34.15
2018-07-23T03:25:32.027Z,33.77
2018-07-23T03:28:00.845Z,34.18
2018-07-23T03:30:29.627Z,34.19
2018-07-23T03:32:58.368Z,34.26
2018-07-23T03:35:27.177Z,34.66
2018-07-23T03:37:55.949Z,33.92
2018-07-23T03:40:24.660Z,33.69
2018-07-23T03:42:53.480Z,34.01
2018-07-23T03:45:22.427Z,33.59
2018-07-23T03:47:51.133Z,34.21
2018-07-23T03:50:20.017Z,34.09
2018-07-23T03:52:48.774Z,33.87
2018-07-23T03:55:17.573Z,33.70
2018-07-23T03:57:46.316Z,33.50
2018-07-23T04:00:15.039Z,33.95
2018-07-23T04:02:43.746Z,33.37
2018-07-23T04:05:12.450Z,33.41
2018-07-23T04:07:41.168Z,33.52
2018-07-23T04:10:09.869Z,33.81
2018-07-23T04:12:38.592Z,34.16
2018-07-23T04:15:07.819Z,33.75
2018-07-23T04:17:36.694Z,33.22
2018-07-23T04:20:05.429Z,33.29
2018-07-23T04:22:34.132Z,33.42
2018-07-23T04:25:02.898Z,33.23
2018-07-23T04:27:31.633Z,33.89
2018-07-23T04:30:00.317Z,33.62
2018-07-23T04:32:29.132Z,33.16
2018-07-23T04:34:57.861Z,33.58
2018-07-23T04:37:26.532Z,33.40
2018-07-23T04:39:55.214Z,33.23
2018-07-23T04:42:23.937Z,33.21
2018-07-23T04:44:52.753Z,33.53
2018-07-23T04:47:21.496Z,33.14
2018-07-23T04:49:50.227Z,33.71
2018-07-23T04:52:18.968Z,33.39
2018-07-23T04:54:47.706Z,33.40
2018-07-23T04:57:16.453Z,32.85
2018-07-23T04:59:45.201Z,33.46
2018-07-23T05:02:14.018Z,33.47
2018-07-23T05:04:42.723Z,33.05
2018-07-23T05:07:11.413Z,32.78
2018-07-23T05:09:40.130Z,33.40
2018-07-23T05:12:08.985Z,32.83
2018-07-23T05:14:37.742Z,33.42
2018-07-23T05:17:06.505Z,33.36
2018-07-23T05:19:35.201Z,33.35
2018-07-23T05:22:04.038Z,33.28
2018-07-23T05:24:32.853Z,33.30
2018-07-23T05:27:01.535Z,33.24
2018-07-23T05:29:30.254Z,33.28
2018-07-23T05:31:58.990Z,33.04
2018-07-23T05:34:27.887Z,32.96
2018-07-23T05:36:56.583Z,33.17
2018-07-23T05:39:25.422Z,32.99
2018-07-23T05:41:54.177Z,33.12
2018-07-23T05:44:23.124Z,32.59
2018-07-23T05:46:51.908Z,32.77
2018-07-23T05:49:20.886Z,33.22
2018-07-23T05:51:49.677Z,32.92
2018-07-23T05:54:18.411Z,32.42
2018-07-23T05:56:47.220Z,33.04
2018-07-23T05:59:15.901Z,32.38
2018-07-23T06:01:44.669Z,32.98
2018-07-23T06:04:13.386Z,32.97
2018-07-23T06:06:42.174Z,32.40
2018-07-23T06:09:11.184Z,32.23
2018-07-23T06:11:39.875Z,32.81
2018-07-23T06:14:08.642Z,32.22
2018-07-23T06:16:37.413Z,32.39
2018-07-23T06:19:06.198Z,32.75
2018-07-23T06:21:35.022Z,32.81
2018-07-23T06:24:03.762Z,32.42
2018-07-23T06:26:32.514Z,32.19
2018-07-23T06:29:01.247Z,32.73
2018-07-23T06:31:29.927Z,32.27
2018-07-23T06:33:58.691Z,32.69
2018-07-23T06:36:27.594Z,32.23
2018-07-23T06:38:56.415Z,32.17
2018-07-23T06:41:25.228Z,32.09
2018-07-23T06:43:53.929Z,32.35
2018-07-23T06:46:22.718Z,32.38
2018-07-23T06:48:51.455Z,32.15
2018-07-23T06:51:20.153Z,31.98
2018-07-23T06:53:48.870Z,32.17
2018-07-23T06:56:17.617Z,32.42
2018-07-23T06:58:46.380Z,32.45
2018-07-23T07:01:15.115Z,32.27
2018-07-23T07:03:43.876Z,32.42
2018-07-23T07:19:02.765Z,32.57
2018-07-23T07:21:31.525Z,32.15
2018-07-23T07:24:00.269Z,32.43
2018-07-23T07:26:29.050Z,32.36
2018-07-23T07:28:57.815Z,32.30
2018-07-23T07:31:26.570Z,31.82
2018-07-23T07:33:55.330Z,32.41
2018-07-23T07:36:24.036Z,32.15
2018-07-23T07:38:52.853Z,32.46
2018-07-23T07:41:21.580Z,32.41
2018-07-23T07:43:51.183Z,32.44
2018-07-23T07:46:20.063Z,32.26
2018-07-23T07:48:48.853Z,31.85
2018-07-23T07:51:17.601Z,31.88
2018-07-23T07:53:46.334Z,32.47
2018-07-23T07:56:15.108Z,31.98
2018-07-23T07:58:43.881Z,32.39
2018-07-23T08:01:12.679Z,32.52
2018-07-23T08:03:41.381Z,32.40
2018-07-23T08:06:10.102Z,31.96
2018-07-23T08:08:38.805Z,31.94
2018-07-23T08:11:07.501Z,32.34
2018-07-23T08:13:36.386Z,32.54
2018-07-23T08:16:05.309Z,31.91
2018-07-23T08:18:34.037Z,31.95
2018-07-23T08:21:02.798Z,31.92
2018-07-23T08:23:31.557Z,32.49
2018-07-23T08:26:00.345Z,32.54
2018-07-23T08:28:29.263Z,32.13
2018-07-23T08:30:57.998Z,32.40
2018-07-23T08:33:26.793Z,32.49
2018-07-23T08:35:55.548Z,32.03
2018-07-23T08:38:24.312Z,32.48
2018-07-23T08:40:53.197Z,32.67
2018-07-23T08:43:21.996Z,32.17
2018-07-23T08:45:50.781Z,32.60
2018-07-23T08:48:19.465Z,32.18
2018-07-23T08:50:48.157Z,32.70
2018-07-23T08:53:16.916Z,32.04
2018-07-23T08:55:45.685Z,32.49
2018-07-23T08:58:14.441Z,32.67
2018-07-23T09:00:43.246Z,32.26
2018-07-23T09:03:11.954Z,32.50
2018-07-23T09:05:40.673Z,32.22
2018-07-23T09:08:09.443Z,32.71
2018-07-23T09:10:38.251Z,32.69
2018-07-23T09:13:07.038Z,32.29
2018-07-23T09:15:35.729Z,32.74
2018-07-23T09:18:04.482Z,31.84
2018-07-23T09:20:33.226Z,32.46
2018-07-23T09:23:02.001Z,32.20
2018-07-23T09:25:35.979Z,32.33
2018-07-23T09:28:04.744Z,32.73
2018-07-23T09:30:39.070Z,32.63
2018-07-23T09:33:08.547Z,32.90
2018-07-23T09:35:37.304Z,33.21
2018-07-23T09:38:06.133Z,32.82
2018-07-23T09:40:34.912Z,33.55
2018-07-23T09:43:04.265Z,33.36
2018-07-23T09:45:33.112Z,32.97
2018-07-23T09:48:01.892Z,32.86
2018-07-23T09:50:30.741Z,33.15
2018-07-23T09:52:59.523Z,33.52
2018-07-23T09:55:28.319Z,32.62
2018-07-23T09:57:57.161Z,33.70
2018-07-23T10:00:30.923Z,33.00
2018-07-23T10:02:59.752Z,33.22
2018-07-23T10:05:28.471Z,32.97
2018-07-23T10:07:57.222Z,33.24
2018-07-23T10:10:25.983Z,32.94
2018-07-23T10:12:54.790Z,33.08
2018-07-23T10:15:23.584Z,33.00
2018-07-23T10:17:52.314Z,33.13
2018-07-23T10:20:21.129Z,33.39
2018-07-23T10:22:50.496Z,33.39
2018-07-23T10:25:19.513Z,33.55
2018-07-23T10:27:49.118Z,33.82
2018-07-23T10:30:17.908Z,32.99
2018-07-23T10:32:47.298Z,32.87
2018-07-23T10:35:16.147Z,32.90
2018-07-23T10:37:44.913Z,32.96
2018-07-23T10:40:15.196Z,33.07
2018-07-23T10:42:44.585Z,33.74
2018-07-23T10:45:13.320Z,32.89
2018-07-23T10:47:42.157Z,33.04
2018-07-23T11:06:16.696Z,33.10
2018-07-23T11:21:35.461Z,33.09
2018-07-23T11:24:05.539Z,33.87
2018-07-23T11:26:34.378Z,33.50
2018-07-23T11:29:03.843Z,33.93
2018-07-23T11:31:32.876Z,33.39
2018-07-23T11:34:03.214Z,33.49
2018-07-23T11:36:32.537Z,33.40
2018-07-23T11:39:01.304Z,34.18
2018-07-23T11:54:20.141Z,33.09
2018-07-23T11:56:49.623Z,33.50
2018-07-23T11:59:25.575Z,33.80
2018-07-23T12:01:54.444Z,33.95
2018-07-23T12:04:24.151Z,34.14
2018-07-23T12:06:52.908Z,34.99
2018-07-23T12:09:21.677Z,35.92
2018-07-23T12:11:50.472Z,35.50
2018-07-23T12:14:19.258Z,35.33
2018-07-23T12:16:48.026Z,35.89
2018-07-23T12:19:16.730Z,35.69
2018-07-23T12:21:45.518Z,36.04
2018-07-23T12:24:14.277Z,36.49
2018-07-23T12:26:43.002Z,36.72
2018-07-23T12:29:11.720Z,36.20
2018-07-23T12:31:40.607Z,36.11
2018-07-23T12:34:09.350Z,36.14
2018-07-23T12:36:38.113Z,36.38
2018-07-23T12:39:09.783Z,36.79
2018-07-23T12:41:38.651Z,36.90
2018-07-23T12:44:07.429Z,36.59
2018-07-23T12:46:36.222Z,36.54
2018-07-23T12:49:05.094Z,37.06
2018-07-23T12:51:33.897Z,37.28
2018-07-23T12:54:02.782Z,37.48
2018-07-23T12:56:31.602Z,37.12
2018-07-23T12:59:00.484Z,37.29
2018-07-23T13:01:29.593Z,37.66
2018-07-23T13:03:58.328Z,37.69
2018-07-23T13:06:27.117Z,37.98
2018-07-23T13:08:55.912Z,38.22
2018-07-23T13:11:24.704Z,37.69
2018-07-23T13:13:53.410Z,38.21
2018-07-23T13:16:22.474Z,38.12
2018-07-23T13:18:51.199Z,37.75
2018-07-23T13:21:19.975Z,38.23
2018-07-23T13:23:48.785Z,37.75
2018-07-23T13:26:17.532Z,37.81
2018-07-23T13:28:46.268Z,37.88
2018-07-23T13:31:15.069Z,38.47
2018-07-23T13:33:43.949Z,38.19
2018-07-23T13:36:12.759Z,38.43
2018-07-23T13:38:41.582Z,38.10
2018-07-23T13:41:10.335Z,38.26
2018-07-23T13:43:39.173Z,38.06
2018-07-23T13:46:07.993Z,38.27
2018-07-23T13:48:36.829Z,37.89
2018-07-23T13:51:05.578Z,38.03
2018-07-23T13:53:34.294Z,38.53
2018-07-23T13:56:03.297Z,38.60
2018-07-23T13:58:32.013Z,38.05
2018-07-23T14:01:00.718Z,37.95
2018-07-23T14:03:29.512Z,37.81
2018-07-23T14:05:58.339Z,38.33
2018-07-23T14:08:27.177Z,38.09
2018-07-23T14:10:56.011Z,37.56
2018-07-23T14:13:24.742Z,38.08
2018-07-23T14:15:53.464Z,38.09
2018-07-23T14:18:22.229Z,37.37
2018-07-23T14:20:51.041Z,37.39
2018-07-23T14:23:19.811Z,37.33
2018-07-23T14:25:48.597Z,37.43
2018-07-23T14:28:17.351Z,37.94
2018-07-23T14:30:46.126Z,37.50
2018-07-23T14:33:14.858Z,37.64
2018-07-23T14:35:43.582Z,37.76
2018-07-23T14:38:12.405Z,37.49
2018-07-23T14:40:41.142Z,37.52
2018-07-23T14:43:09.954Z,37.44
2018-07-23T14:45:38.777Z,37.61
2018-07-23T14:48:07.588Z,37.86
2018-07-23T14:50:36.518Z,37.80
2018-07-23T14:53:05.338Z,37.57
2018-07-23T14:55:34.236Z,37.90
2018-07-23T14:58:03.007Z,37.57
2018-07-23T15:00:31.743Z,38.22
2018-07-23T15:03:00.589Z,38.42
2018-07-23T15:05:29.427Z,37.89
2018-07-23T15:07:59.377Z,37.96
2018-07-23T15:10:28.191Z,38.62
2018-07-23T15:12:57.014Z,38.95
2018-07-23T15:15:25.785Z,38.56
2018-07-23T15:17:54.536Z,38.39
2018-07-23T15:20:24.213Z,38.75
2018-07-23T15:22:52.999Z,38.72
2018-07-23T15:25:21.831Z,38.92
2018-07-23T15:27:50.613Z,38.29
2018-07-23T15:30:19.491Z,38.32
2018-07-23T15:32:48.283Z,38.54
2018-07-23T15:35:17.081Z,38.58
2018-07-23T15:37:45.941Z,38.27
2018-07-23T15:40:14.823Z,38.13
2018-07-23T15:42:43.641Z,37.52
2018-07-23T15:45:12.602Z,37.39
2018-07-23T15:47:41.304Z,37.89
2018-07-23T15:50:10.180Z,37.15
2018-07-23T15:52:39.223Z,37.09
2018-07-23T15:55:08.022Z,36.88
2018-07-23T15:57:36.784Z,37.33
2018-07-23T16:00:06.206Z,37.49
2018-07-23T16:02:35.293Z,36.90
2018-07-23T16:05:04.230Z,37.33
2018-07-23T16:07:33.173Z,36.71
2018-07-23T16:10:02.000Z,36.67
2018-07-23T16:12:30.853Z,36.82
2018-07-23T16:14:59.775Z,36.51
2018-07-23T16:17:30.299Z,36.65
2018-07-23T16:19:59.156Z,36.83
2018-07-23T16:22:27.925Z,36.36
2018-07-23T16:24:56.642Z,36.91
2018-07-23T16:27:25.443Z,36.10
2018-07-23T16:29:54.192Z,36.29
2018-07-23T16:32:23.720Z,36.75
2018-07-23T16:34:52.495Z,36.72
2018-07-23T16:37:21.231Z,36.49
2018-07-23T16:39:50.062Z,36.63
2018-07-23T16:42:18.902Z,36.03
2018-07-23T16:44:47.738Z,36.38
2018-07-23T16:47:16.514Z,36.25
2018-07-23T16:49:45.325Z,36.42
2018-07-23T16:52:15.222Z,36.22
2018-07-23T16:54:44.030Z,35.97
2018-07-23T17:00:43.834Z,35.82
2018-07-23T17:03:12.602Z,35.68
2018-07-23T17:05:44.549Z,35.54
2018-07-23T17:08:14.625Z,35.61
2018-07-23T17:10:44.453Z,35.62
2018-07-23T17:13:13.502Z,36.13
2018-07-23T17:15:42.337Z,36.10
2018-07-23T17:18:12.071Z,36.05
2018-07-23T17:20:40.848Z,36.11
2018-07-23T17:23:09.703Z,35.63
2018-07-23T17:25:38.610Z,35.90
2018-07-23T17:28:07.444Z,36.05
2018-07-23T17:30:36.799Z,35.80
2018-07-23T17:33:05.690Z,35.74
2018-07-23T17:35:34.650Z,35.62
2018-07-23T17:38:03.594Z,36.10
2018-07-23T17:40:32.657Z,35.12
2018-07-23T17:43:01.524Z,35.57
2018-07-23T17:45:31.212Z,35.71
2018-07-23T17:48:00.092Z,35.26
2018-07-23T17:50:29.592Z,35.26
2018-07-23T17:52:58.482Z,35.01
2018-07-23T17:55:27.527Z,34.92
2018-07-23T17:57:56.406Z,35.35
2018-07-23T18:00:25.451Z,35.21
2018-07-23T18:02:54.369Z,35.38
2018-07-23T18:05:23.308Z,35.38
2018-07-23T18:07:52.308Z,35.34
2018-07-23T18:10:22.025Z,35.27
2018-07-23T18:12:50.938Z,34.66
2018-07-23T18:15:19.863Z,35.26
2018-07-23T18:17:48.918Z,34.80
2018-07-23T18:20:17.945Z,34.68
2018-07-23T18:22:46.895Z,35.23
2018-07-23T18:25:15.838Z,34.99
2018-07-23T18:27:44.705Z,35.18
2018-07-23T18:30:14.407Z,35.15
2018-07-23T18:32:43.494Z,34.43
2018-07-23T18:35:12.998Z,34.40
2018-07-23T18:37:41.985Z,35.06
2018-07-23T18:40:11.610Z,34.51
2018-07-23T18:42:41.606Z,34.76
2018-07-23T18:45:10.517Z,34.56
2018-07-23T18:47:40.499Z,35.16
2018-07-23T18:50:09.436Z,34.95
2018-07-23T18:52:38.444Z,34.86
2018-07-23T18:55:07.356Z,34.47
2018-07-23T18:57:36.659Z,34.81
2018-07-23T19:00:06.405Z,34.81
2018-07-23T19:02:35.260Z,34.29
2018-07-23T19:05:04.307Z,34.75
2018-07-23T19:07:33.216Z,34.47
2018-07-23T19:10:02.100Z,34.68
2018-07-23T19:12:31.087Z,34.68
2018-07-23T19:14:59.938Z,34.25
2018-07-23T19:17:29.163Z,34.56
2018-07-23T19:19:58.184Z,34.03
2018-07-23T19:22:27.266Z,34.17
2018-07-23T19:24:56.197Z,34.17
2018-07-23T19:27:25.080Z,34.34
2018-07-23T19:29:54.049Z,34.34
2018-07-23T19:32:23.594Z,34.32
2018-07-23T19:34:53.103Z,34.37
2018-07-23T19:37:22.360Z,34.08
2018-07-23T19:39:51.330Z,34.48
2018-07-23T19:42:20.540Z,34.13
2018-07-23T19:44:49.659Z,33.75
2018-07-23T19:47:18.620Z,33.98
2018-07-23T19:49:47.566Z,34.20
2018-07-23T19:52:16.709Z,33.95
2018-07-23T19:54:45.908Z,34.13
2018-07-23T19:57:14.851Z,34.03
2018-07-23T19:59:43.905Z,33.94
2018-07-23T20:02:12.915Z,34.32
2018-07-23T20:04:42.959Z,34.43
2018-07-23T20:07:12.872Z,33.99
2018-07-23T20:09:42.434Z,34.40
2018-07-23T20:12:11.410Z,34.36
2018-07-23T20:14:40.405Z,34.36
2018-07-23T20:17:09.511Z,34.37
2018-07-23T20:19:39.127Z,33.89
2018-07-23T20:22:08.239Z,33.87
2018-07-23T20:24:37.381Z,34.11
2018-07-23T20:27:06.415Z,34.13
2018-07-23T20:29:35.323Z,33.65
2018-07-23T20:32:04.954Z,34.24
2018-07-23T20:34:34.112Z,34.21
2018-07-23T20:37:03.262Z,33.81
2018-07-23T20:39:33.062Z,33.68
2018-07-23T20:42:02.639Z,33.88
2018-07-23T20:44:31.973Z,34.22
2018-07-23T20:47:01.318Z,34.29
2018-07-23T20:49:30.422Z,34.06
2018-07-23T20:51:59.410Z,33.83
2018-07-23T20:54:28.506Z,34.22
2018-07-23T20:56:57.579Z,34.04
2018-07-23T20:59:26.933Z,33.62
2018-07-23T21:01:56.166Z,34.42
2018-07-23T21:04:25.211Z,33.51
2018-07-23T21:06:54.405Z,33.98
2018-07-23T21:09:23.434Z,34.25
2018-07-23T21:11:52.406Z,34.22
2018-07-23T21:14:21.432Z,33.68
2018-07-23T21:16:50.473Z,33.75
2018-07-23T21:19:19.414Z,34.20
2018-07-23T21:21:48.311Z,33.78
2018-07-23T21:24:17.242Z,33.84
2018-07-23T21:26:46.124Z,33.74
2018-07-23T21:29:15.078Z,33.72
2018-07-23T21:31:43.972Z,33.53
2018-07-23T21:34:13.274Z,33.12
2018-07-23T21:36:42.209Z,33.77
2018-07-23T21:39:11.557Z,33.41
2018-07-23T21:41:40.649Z,34.07
2018-07-23T21:44:09.504Z,34.11
2018-07-23T21:46:39.813Z,33.61
2018-07-23T21:49:08.873Z,33.50
2018-07-23T21:51:38.008Z,33.89
2018-07-23T21:54:07.106Z,34.08
2018-07-23T21:56:36.232Z,33.35
2018-07-23T21:59:05.351Z,33.64
2018-07-23T22:01:34.231Z,34.20
2018-07-23T22:04:03.189Z,33.55
2018-07-23T22:06:32.705Z,33.39
2018-07-23T22:09:01.905Z,33.81
2018-07-23T22:11:30.821Z,33.85
2018-07-23T22:14:00.507Z,33.47
2018-07-23T22:16:29.399Z,33.94
2018-07-23T22:18:58.338Z,33.73
2018-07-23T22:21:27.207Z,33.83
2018-07-23T22:23:56.075Z,33.54
2018-07-23T22:26:24.919Z,34.10
2018-07-23T22:28:53.722Z,33.74
2018-07-23T22:31:22.661Z,33.44
2018-07-23T22:33:51.569Z,33.92
2018-07-23T22:36:20.576Z,33.91
2018-07-23T22:38:49.593Z,34.22
2018-07-23T22:41:18.475Z,34.01
2018-07-23T22:43:47.311Z,33.69
2018-07-23T22:46:16.185Z,34.07
2018-07-23T22:48:45.047Z,34.17
2018-07-23T22:51:13.934Z,33.70
2018-07-23T22:53:42.771Z,33.88
2018-07-23T22:56:11.517Z,34.34
2018-07-23T22:58:40.354Z,33.52
2018-07-23T23:01:10.067Z,33.89
2018-07-23T23:03:38.857Z,34.03
2018-07-23T23:06:07.707Z,34.46
2018-07-23T23:08:36.514Z,34.41
2018-07-23T23:11:05.314Z,33.73
2018-07-23T23:13:36.133Z,34.17
2018-07-23T23:16:05.140Z,34.48
2018-07-23T23:18:34.087Z,34.44
2018-07-23T23:21:03.630Z,34.58
2018-07-23T23:23:32.404Z,34.22
2018-07-23T23:26:01.195Z,33.84
2018-07-23T23:28:29.961Z,34.02
2018-07-23T23:30:58.825Z,33.99
2018-07-23T23:33:27.612Z,33.83
2018-07-23T23:35:56.373Z,33.80
2018-07-23T23:38:25.184Z,34.45
2018-07-23T23:40:53.985Z,34.45
2018-07-23T23:43:22.851Z,34.44
2018-07-23T23:45:51.602Z,34.21
2018-07-23T23:48:20.410Z,34.37
2018-07-23T23:50:49.249Z,33.87
2018-07-23T23:53:19.129Z,33.76
2018-07-23T23:55:47.926Z,34.06
2018-07-23T23:58:16.641Z,34.33
